sensor_id;sensor_type;location;lat;lon;timestamp;P1;durP1;ratioP1;P2;durP2;ratioP2
53339;SDS011;46212;50.258;19.062;2023-03-23T00:00:46;20.40;;;11.93;;
53339;SDS011;46212;50.258;19.062;2023-03-23T00:03:12;124.85;;;77.38;;
53339;SDS011;46212;50.258;19.062;2023-03-23T00:05:38;79.23;;;47.07;;
53339;SDS011;46212;50.258;19.062;2023-03-23T00:08:06;25.42;;;14.15;;
53339;SDS011;46212;50.258;19.062;2023-03-23T00:10:34;19.58;;;11.52;;
53339;SDS011;46212;50.258;19.062;2023-03-23T00:13:00;25.50;;;14.13;;
53339;SDS011;46212;50.258;19.062;2023-03-23T00:15:29;22.40;;;11.30;;
53339;SDS011;46212;50.258;19.062;2023-03-23T00:17:58;23.05;;;12.80;;
53339;SDS011;46212;50.258;19.062;2023-03-23T00:20:30;20.38;;;12.05;;
53339;SDS011;46212;50.258;19.062;2023-03-23T00:23:04;19.88;;;12.38;;
53339;SDS011;46212;50.258;19.062;2023-03-23T00:27:57;20.45;;;10.75;;
53339;SDS011;46212;50.258;19.062;2023-03-23T00:30:22;19.77;;;11.17;;
53339;SDS011;46212;50.258;19.062;2023-03-23T00:32:47;19.13;;;11.23;;
53339;SDS011;46212;50.258;19.062;2023-03-23T00:35:13;21.40;;;10.57;;
53339;SDS011;46212;50.258;19.062;2023-03-23T00:37:39;19.23;;;10.80;;
53339;SDS011;46212;50.258;19.062;2023-03-23T00:40:05;17.20;;;10.73;;
53339;SDS011;46212;50.258;19.062;2023-03-23T00:42:34;18.77;;;10.90;;
53339;SDS011;46212;50.258;19.062;2023-03-23T00:45:02;15.85;;;9.85;;
53339;SDS011;46212;50.258;19.062;2023-03-23T00:47:35;17.20;;;11.57;;
53339;SDS011;46212;50.258;19.062;2023-03-23T00:50:03;20.73;;;10.82;;
53339;SDS011;46212;50.258;19.062;2023-03-23T00:52:30;18.80;;;10.60;;
53339;SDS011;46212;50.258;19.062;2023-03-23T00:54:56;18.08;;;11.32;;
53339;SDS011;46212;50.258;19.062;2023-03-23T00:57:21;22.83;;;11.10;;
53339;SDS011;46212;50.258;19.062;2023-03-23T00:59:49;17.17;;;10.45;;
53339;SDS011;46212;50.258;19.062;2023-03-23T01:04:41;19.75;;;10.90;;
53339;SDS011;46212;50.258;19.062;2023-03-23T01:07:09;23.83;;;11.85;;
53339;SDS011;46212;50.258;19.062;2023-03-23T01:09:37;24.20;;;13.75;;
53339;SDS011;46212;50.258;19.062;2023-03-23T01:12:05;25.00;;;14.00;;
53339;SDS011;46212;50.258;19.062;2023-03-23T01:14:30;24.60;;;14.60;;
53339;SDS011;46212;50.258;19.062;2023-03-23T01:16:56;30.53;;;17.00;;
53339;SDS011;46212;50.258;19.062;2023-03-23T01:19:22;25.53;;;14.10;;
53339;SDS011;46212;50.258;19.062;2023-03-23T01:21:47;19.93;;;12.83;;
53339;SDS011;46212;50.258;19.062;2023-03-23T01:24:13;23.50;;;13.60;;
53339;SDS011;46212;50.258;19.062;2023-03-23T01:26:38;23.17;;;12.30;;
53339;SDS011;46212;50.258;19.062;2023-03-23T01:29:03;27.00;;;15.17;;
53339;SDS011;46212;50.258;19.062;2023-03-23T01:31:29;21.33;;;12.87;;
53339;SDS011;46212;50.258;19.062;2023-03-23T01:33:54;21.63;;;12.37;;
53339;SDS011;46212;50.258;19.062;2023-03-23T01:36:25;24.13;;;12.53;;
53339;SDS011;46212;50.258;19.062;2023-03-23T01:38:54;22.98;;;12.35;;
53339;SDS011;46212;50.258;19.062;2023-03-23T01:41:20;21.88;;;11.88;;
53339;SDS011;46212;50.258;19.062;2023-03-23T01:46:27;19.20;;;10.75;;
53339;SDS011;46212;50.258;19.062;2023-03-23T01:48:54;22.88;;;12.45;;
53339;SDS011;46212;50.258;19.062;2023-03-23T01:51:22;19.08;;;10.73;;
53339;SDS011;46212;50.258;19.062;2023-03-23T01:53:54;16.88;;;10.77;;
53339;SDS011;46212;50.258;19.062;2023-03-23T01:56:24;18.05;;;11.63;;
53339;SDS011;46212;50.258;19.062;2023-03-23T01:58:54;18.40;;;11.35;;
53339;SDS011;46212;50.258;19.062;2023-03-23T02:01:21;22.52;;;12.48;;
53339;SDS011;46212;50.258;19.062;2023-03-23T02:03:49;24.63;;;12.32;;
53339;SDS011;46212;50.258;19.062;2023-03-23T02:06:17;18.52;;;11.80;;
53339;SDS011;46212;50.258;19.062;2023-03-23T02:08:43;17.63;;;10.67;;
53339;SDS011;46212;50.258;19.062;2023-03-23T02:11:14;17.80;;;11.13;;
53339;SDS011;46212;50.258;19.062;2023-03-23T02:13:41;18.27;;;11.23;;
53339;SDS011;46212;50.258;19.062;2023-03-23T02:16:11;15.55;;;10.00;;
53339;SDS011;46212;50.258;19.062;2023-03-23T02:18:53;15.30;;;9.57;;
53339;SDS011;46212;50.258;19.062;2023-03-23T02:21:32;18.30;;;9.40;;
53339;SDS011;46212;50.258;19.062;2023-03-23T02:26:54;16.20;;;9.43;;
53339;SDS011;46212;50.258;19.062;2023-03-23T02:32:10;16.67;;;9.55;;
53339;SDS011;46212;50.258;19.062;2023-03-23T02:34:46;15.20;;;8.63;;
53339;SDS011;46212;50.258;19.062;2023-03-23T02:39:57;16.58;;;9.07;;
53339;SDS011;46212;50.258;19.062;2023-03-23T02:42:36;12.27;;;7.57;;
53339;SDS011;46212;50.258;19.062;2023-03-23T02:45:05;18.35;;;9.88;;
53339;SDS011;46212;50.258;19.062;2023-03-23T02:47:33;16.55;;;9.25;;
53339;SDS011;46212;50.258;19.062;2023-03-23T02:50:02;14.70;;;9.02;;
53339;SDS011;46212;50.258;19.062;2023-03-23T02:52:31;18.08;;;9.45;;
53339;SDS011;46212;50.258;19.062;2023-03-23T02:54:59;18.35;;;9.77;;
53339;SDS011;46212;50.258;19.062;2023-03-23T02:59:52;14.30;;;9.38;;
53339;SDS011;46212;50.258;19.062;2023-03-23T03:02:19;16.92;;;9.00;;
53339;SDS011;46212;50.258;19.062;2023-03-23T03:04:52;17.50;;;9.85;;
53339;SDS011;46212;50.258;19.062;2023-03-23T03:07:36;15.05;;;9.07;;
53339;SDS011;46212;50.258;19.062;2023-03-23T03:10:23;19.58;;;10.82;;
53339;SDS011;46212;50.258;19.062;2023-03-23T03:15:53;16.63;;;9.35;;
53339;SDS011;46212;50.258;19.062;2023-03-23T03:18:29;15.48;;;9.00;;
53339;SDS011;46212;50.258;19.062;2023-03-23T03:21:03;18.60;;;9.00;;
53339;SDS011;46212;50.258;19.062;2023-03-23T03:23:33;17.08;;;9.02;;
53339;SDS011;46212;50.258;19.062;2023-03-23T03:26:02;15.23;;;8.38;;
53339;SDS011;46212;50.258;19.062;2023-03-23T03:28:30;13.27;;;7.95;;
53339;SDS011;46212;50.258;19.062;2023-03-23T03:30:57;16.23;;;9.07;;
53339;SDS011;46212;50.258;19.062;2023-03-23T03:33:27;15.10;;;8.05;;
53339;SDS011;46212;50.258;19.062;2023-03-23T03:35:56;14.60;;;8.00;;
53339;SDS011;46212;50.258;19.062;2023-03-23T03:38:24;12.48;;;7.03;;
53339;SDS011;46212;50.258;19.062;2023-03-23T03:40:50;10.27;;;6.32;;
53339;SDS011;46212;50.258;19.062;2023-03-23T03:43:16;13.33;;;6.97;;
53339;SDS011;46212;50.258;19.062;2023-03-23T03:45:42;10.13;;;6.67;;
53339;SDS011;46212;50.258;19.062;2023-03-23T03:48:08;14.03;;;7.40;;
53339;SDS011;46212;50.258;19.062;2023-03-23T03:50:33;15.73;;;6.43;;
53339;SDS011;46212;50.258;19.062;2023-03-23T03:52:59;12.07;;;7.30;;
53339;SDS011;46212;50.258;19.062;2023-03-23T03:55:24;12.63;;;6.37;;
53339;SDS011;46212;50.258;19.062;2023-03-23T03:57:50;10.83;;;6.13;;
53339;SDS011;46212;50.258;19.062;2023-03-23T04:00:16;12.77;;;5.67;;
53339;SDS011;46212;50.258;19.062;2023-03-23T04:02:42;11.50;;;5.90;;
53339;SDS011;46212;50.258;19.062;2023-03-23T04:05:19;11.70;;;6.82;;
53339;SDS011;46212;50.258;19.062;2023-03-23T04:10:14;11.63;;;5.93;;
53339;SDS011;46212;50.258;19.062;2023-03-23T04:12:39;13.83;;;6.63;;
53339;SDS011;46212;50.258;19.062;2023-03-23T04:15:05;15.47;;;7.30;;
53339;SDS011;46212;50.258;19.062;2023-03-23T04:17:32;13.77;;;6.65;;
53339;SDS011;46212;50.258;19.062;2023-03-23T04:19:58;19.98;;;6.60;;
53339;SDS011;46212;50.258;19.062;2023-03-23T04:22:25;8.90;;;5.38;;
53339;SDS011;46212;50.258;19.062;2023-03-23T04:24:55;9.32;;;6.32;;
53339;SDS011;46212;50.258;19.062;2023-03-23T04:27:23;11.65;;;5.90;;
53339;SDS011;46212;50.258;19.062;2023-03-23T04:29:49;10.65;;;5.45;;
53339;SDS011;46212;50.258;19.062;2023-03-23T04:32:15;11.93;;;6.17;;
53339;SDS011;46212;50.258;19.062;2023-03-23T04:34:43;11.05;;;5.85;;
53339;SDS011;46212;50.258;19.062;2023-03-23T04:37:09;10.20;;;5.32;;
53339;SDS011;46212;50.258;19.062;2023-03-23T04:39:34;10.47;;;6.07;;
53339;SDS011;46212;50.258;19.062;2023-03-23T04:42:00;12.77;;;6.13;;
53339;SDS011;46212;50.258;19.062;2023-03-23T04:44:26;11.23;;;5.73;;
53339;SDS011;46212;50.258;19.062;2023-03-23T04:46:52;11.60;;;6.15;;
53339;SDS011;46212;50.258;19.062;2023-03-23T04:49:19;12.55;;;5.78;;
53339;SDS011;46212;50.258;19.062;2023-03-23T04:51:47;17.13;;;7.85;;
53339;SDS011;46212;50.258;19.062;2023-03-23T04:54:15;10.93;;;7.03;;
53339;SDS011;46212;50.258;19.062;2023-03-23T04:56:41;11.07;;;6.20;;
53339;SDS011;46212;50.258;19.062;2023-03-23T04:59:06;14.30;;;6.67;;
53339;SDS011;46212;50.258;19.062;2023-03-23T05:01:32;12.53;;;6.37;;
53339;SDS011;46212;50.258;19.062;2023-03-23T05:03:59;11.95;;;7.25;;
53339;SDS011;46212;50.258;19.062;2023-03-23T05:06:25;11.03;;;5.80;;
53339;SDS011;46212;50.258;19.062;2023-03-23T05:08:51;13.07;;;6.53;;
53339;SDS011;46212;50.258;19.062;2023-03-23T05:11:16;12.40;;;6.87;;
53339;SDS011;46212;50.258;19.062;2023-03-23T05:13:41;11.07;;;5.93;;
53339;SDS011;46212;50.258;19.062;2023-03-23T05:16:09;11.40;;;6.07;;
53339;SDS011;46212;50.258;19.062;2023-03-23T05:18:34;12.60;;;6.37;;
53339;SDS011;46212;50.258;19.062;2023-03-23T05:21:00;9.40;;;6.03;;
53339;SDS011;46212;50.258;19.062;2023-03-23T05:23:27;13.00;;;6.32;;
53339;SDS011;46212;50.258;19.062;2023-03-23T05:25:56;12.18;;;5.53;;
53339;SDS011;46212;50.258;19.062;2023-03-23T05:28:27;11.70;;;6.68;;
53339;SDS011;46212;50.258;19.062;2023-03-23T05:30:53;11.15;;;6.13;;
53339;SDS011;46212;50.258;19.062;2023-03-23T05:33:20;9.52;;;5.93;;
53339;SDS011;46212;50.258;19.062;2023-03-23T05:35:46;12.63;;;6.37;;
53339;SDS011;46212;50.258;19.062;2023-03-23T05:38:12;9.60;;;5.57;;
53339;SDS011;46212;50.258;19.062;2023-03-23T05:40:39;9.57;;;5.13;;
53339;SDS011;46212;50.258;19.062;2023-03-23T05:45:32;9.98;;;5.28;;
53339;SDS011;46212;50.258;19.062;2023-03-23T05:47:58;11.80;;;6.78;;
53339;SDS011;46212;50.258;19.062;2023-03-23T05:50:24;11.50;;;6.53;;
53339;SDS011;46212;50.258;19.062;2023-03-23T05:52:50;9.43;;;6.10;;
53339;SDS011;46212;50.258;19.062;2023-03-23T05:55:16;11.57;;;6.63;;
53339;SDS011;46212;50.258;19.062;2023-03-23T05:57:41;10.57;;;5.50;;
53339;SDS011;46212;50.258;19.062;2023-03-23T06:00:07;11.27;;;6.13;;
53339;SDS011;46212;50.258;19.062;2023-03-23T06:02:40;12.35;;;5.82;;
53339;SDS011;46212;50.258;19.062;2023-03-23T06:05:09;10.43;;;5.80;;
53339;SDS011;46212;50.258;19.062;2023-03-23T06:07:35;10.65;;;6.07;;
53339;SDS011;46212;50.258;19.062;2023-03-23T06:10:02;12.00;;;5.93;;
53339;SDS011;46212;50.258;19.062;2023-03-23T06:12:29;8.32;;;4.75;;
53339;SDS011;46212;50.258;19.062;2023-03-23T06:14:54;8.20;;;5.37;;
53339;SDS011;46212;50.258;19.062;2023-03-23T06:17:20;9.33;;;5.47;;
53339;SDS011;46212;50.258;19.062;2023-03-23T06:19:45;12.57;;;6.37;;
53339;SDS011;46212;50.258;19.062;2023-03-23T06:22:12;10.00;;;4.78;;
53339;SDS011;46212;50.258;19.062;2023-03-23T06:24:37;10.18;;;5.22;;
53339;SDS011;46212;50.258;19.062;2023-03-23T06:27:03;9.90;;;5.40;;
53339;SDS011;46212;50.258;19.062;2023-03-23T06:29:29;13.13;;;5.07;;
53339;SDS011;46212;50.258;19.062;2023-03-23T06:31:56;8.07;;;4.50;;
53339;SDS011;46212;50.258;19.062;2023-03-23T06:34:24;9.85;;;5.07;;
53339;SDS011;46212;50.258;19.062;2023-03-23T06:36:49;8.80;;;5.07;;
53339;SDS011;46212;50.258;19.062;2023-03-23T06:39:15;12.13;;;5.47;;
53339;SDS011;46212;50.258;19.062;2023-03-23T06:41:41;9.87;;;4.87;;
53339;SDS011;46212;50.258;19.062;2023-03-23T06:44:07;9.67;;;5.27;;
53339;SDS011;46212;50.258;19.062;2023-03-23T06:46:33;14.07;;;5.35;;
53339;SDS011;46212;50.258;19.062;2023-03-23T06:48:59;8.32;;;5.38;;
53339;SDS011;46212;50.258;19.062;2023-03-23T06:51:24;11.77;;;7.97;;
53339;SDS011;46212;50.258;19.062;2023-03-23T06:53:50;8.40;;;4.77;;
53339;SDS011;46212;50.258;19.062;2023-03-23T06:56:15;8.67;;;5.40;;
53339;SDS011;46212;50.258;19.062;2023-03-23T06:58:41;8.53;;;5.47;;
53339;SDS011;46212;50.258;19.062;2023-03-23T07:01:07;10.17;;;5.93;;
53339;SDS011;46212;50.258;19.062;2023-03-23T07:06:00;11.43;;;5.35;;
53339;SDS011;46212;50.258;19.062;2023-03-23T07:08:26;8.87;;;4.93;;
53339;SDS011;46212;50.258;19.062;2023-03-23T07:10:52;9.93;;;5.33;;
53339;SDS011;46212;50.258;19.062;2023-03-23T07:13:18;7.60;;;5.47;;
53339;SDS011;46212;50.258;19.062;2023-03-23T07:15:45;8.50;;;4.80;;
53339;SDS011;46212;50.258;19.062;2023-03-23T07:18:11;9.17;;;4.97;;
53339;SDS011;46212;50.258;19.062;2023-03-23T07:20:36;12.40;;;5.13;;
53339;SDS011;46212;50.258;19.062;2023-03-23T07:23:02;11.10;;;5.63;;
53339;SDS011;46212;50.258;19.062;2023-03-23T07:25:30;9.00;;;5.32;;
53339;SDS011;46212;50.258;19.062;2023-03-23T07:27:56;9.15;;;5.30;;
53339;SDS011;46212;50.258;19.062;2023-03-23T07:30:22;8.13;;;4.47;;
53339;SDS011;46212;50.258;19.062;2023-03-23T07:32:47;8.23;;;5.57;;
53339;SDS011;46212;50.258;19.062;2023-03-23T07:35:12;6.47;;;4.40;;
53339;SDS011;46212;50.258;19.062;2023-03-23T07:37:38;8.03;;;5.20;;
53339;SDS011;46212;50.258;19.062;2023-03-23T07:40:04;24.13;;;16.47;;
53339;SDS011;46212;50.258;19.062;2023-03-23T07:42:33;56.55;;;35.83;;
53339;SDS011;46212;50.258;19.062;2023-03-23T07:44:58;9.77;;;5.30;;
53339;SDS011;46212;50.258;19.062;2023-03-23T07:47:24;8.47;;;5.07;;
53339;SDS011;46212;50.258;19.062;2023-03-23T07:49:49;8.30;;;4.93;;
53339;SDS011;46212;50.258;19.062;2023-03-23T07:52:15;9.63;;;4.00;;
53339;SDS011;46212;50.258;19.062;2023-03-23T07:54:40;8.17;;;4.77;;
53339;SDS011;46212;50.258;19.062;2023-03-23T07:57:06;9.30;;;4.63;;
53339;SDS011;46212;50.258;19.062;2023-03-23T07:59:31;12.00;;;4.90;;
53339;SDS011;46212;50.258;19.062;2023-03-23T08:01:57;6.93;;;4.00;;
53339;SDS011;46212;50.258;19.062;2023-03-23T08:04:23;8.77;;;4.77;;
53339;SDS011;46212;50.258;19.062;2023-03-23T08:06:48;9.87;;;5.23;;
53339;SDS011;46212;50.258;19.062;2023-03-23T08:09:14;8.87;;;4.70;;
53339;SDS011;46212;50.258;19.062;2023-03-23T08:11:40;8.90;;;4.53;;
53339;SDS011;46212;50.258;19.062;2023-03-23T08:14:06;7.90;;;4.50;;
53339;SDS011;46212;50.258;19.062;2023-03-23T08:16:32;8.63;;;5.23;;
53339;SDS011;46212;50.258;19.062;2023-03-23T08:18:58;12.68;;;5.00;;
53339;SDS011;46212;50.258;19.062;2023-03-23T08:21:23;8.37;;;4.67;;
53339;SDS011;46212;50.258;19.062;2023-03-23T08:23:49;7.87;;;4.63;;
53339;SDS011;46212;50.258;19.062;2023-03-23T08:26:14;16.97;;;11.17;;
53339;SDS011;46212;50.258;19.062;2023-03-23T08:28:42;10.10;;;4.68;;
53339;SDS011;46212;50.258;19.062;2023-03-23T08:31:13;7.18;;;4.47;;
53339;SDS011;46212;50.258;19.062;2023-03-23T08:33:40;9.43;;;5.03;;
53339;SDS011;46212;50.258;19.062;2023-03-23T08:38:32;8.90;;;5.20;;
53339;SDS011;46212;50.258;19.062;2023-03-23T08:41:02;7.33;;;4.07;;
53339;SDS011;46212;50.258;19.062;2023-03-23T08:43:29;12.38;;;4.50;;
53339;SDS011;46212;50.258;19.062;2023-03-23T08:45:57;7.90;;;4.63;;
53339;SDS011;46212;50.258;19.062;2023-03-23T08:48:22;11.73;;;5.00;;
53339;SDS011;46212;50.258;19.062;2023-03-23T08:50:48;8.07;;;4.70;;
53339;SDS011;46212;50.258;19.062;2023-03-23T08:53:15;7.28;;;4.32;;
53339;SDS011;46212;50.258;19.062;2023-03-23T08:55:41;8.43;;;3.85;;
53339;SDS011;46212;50.258;19.062;2023-03-23T08:58:08;8.27;;;4.60;;
53339;SDS011;46212;50.258;19.062;2023-03-23T09:00:34;8.98;;;4.43;;
53339;SDS011;46212;50.258;19.062;2023-03-23T09:02:59;9.77;;;4.43;;
53339;SDS011;46212;50.258;19.062;2023-03-23T09:05:25;6.93;;;4.10;;
53339;SDS011;46212;50.258;19.062;2023-03-23T09:07:53;8.85;;;3.90;;
53339;SDS011;46212;50.258;19.062;2023-03-23T09:10:23;9.18;;;5.22;;
53339;SDS011;46212;50.258;19.062;2023-03-23T09:15:16;7.70;;;4.38;;
53339;SDS011;46212;50.258;19.062;2023-03-23T09:17:44;8.15;;;4.35;;
53339;SDS011;46212;50.258;19.062;2023-03-23T09:20:12;7.75;;;4.03;;
53339;SDS011;46212;50.258;19.062;2023-03-23T09:22:42;11.02;;;4.38;;
53339;SDS011;46212;50.258;19.062;2023-03-23T09:25:09;9.50;;;5.30;;
53339;SDS011;46212;50.258;19.062;2023-03-23T09:27:36;9.15;;;4.68;;
53339;SDS011;46212;50.258;19.062;2023-03-23T09:30:07;9.02;;;4.75;;
53339;SDS011;46212;50.258;19.062;2023-03-23T09:32:36;8.07;;;4.40;;
53339;SDS011;46212;50.258;19.062;2023-03-23T09:35:03;12.88;;;5.65;;
53339;SDS011;46212;50.258;19.062;2023-03-23T09:37:34;9.68;;;4.82;;
53339;SDS011;46212;50.258;19.062;2023-03-23T09:40:01;8.45;;;4.93;;
53339;SDS011;46212;50.258;19.062;2023-03-23T09:42:51;12.73;;;5.28;;
53339;SDS011;46212;50.258;19.062;2023-03-23T09:50:45;7.60;;;4.22;;
53339;SDS011;46212;50.258;19.062;2023-03-23T09:53:21;7.53;;;4.57;;
53339;SDS011;46212;50.258;19.062;2023-03-23T09:55:49;10.70;;;5.50;;
53339;SDS011;46212;50.258;19.062;2023-03-23T10:03:26;13.15;;;5.07;;
53339;SDS011;46212;50.258;19.062;2023-03-23T10:05:55;12.60;;;5.40;;
53339;SDS011;46212;50.258;19.062;2023-03-23T10:11:06;9.45;;;4.43;;
53339;SDS011;46212;50.258;19.062;2023-03-23T10:19:36;7.53;;;3.08;;
53339;SDS011;46212;50.258;19.062;2023-03-23T10:22:16;12.80;;;4.28;;
53339;SDS011;46212;50.258;19.062;2023-03-23T10:24:51;6.18;;;3.00;;
53339;SDS011;46212;50.258;19.062;2023-03-23T10:27:32;11.00;;;3.60;;
53339;SDS011;46212;50.258;19.062;2023-03-23T10:38:31;8.88;;;4.00;;
53339;SDS011;46212;50.258;19.062;2023-03-23T10:41:01;8.02;;;3.38;;
53339;SDS011;46212;50.258;19.062;2023-03-23T10:43:34;7.32;;;2.65;;
53339;SDS011;46212;50.258;19.062;2023-03-23T10:46:01;5.82;;;2.78;;
53339;SDS011;46212;50.258;19.062;2023-03-23T10:48:33;7.15;;;2.67;;
53339;SDS011;46212;50.258;19.062;2023-03-23T10:51:03;9.98;;;2.30;;
53339;SDS011;46212;50.258;19.062;2023-03-23T10:53:35;7.32;;;2.90;;
53339;SDS011;46212;50.258;19.062;2023-03-23T10:56:03;11.02;;;3.17;;
53339;SDS011;46212;50.258;19.062;2023-03-23T10:58:31;4.55;;;2.47;;
53339;SDS011;46212;50.258;19.062;2023-03-23T11:00:59;7.05;;;4.00;;
53339;SDS011;46212;50.258;19.062;2023-03-23T11:06:08;8.32;;;3.65;;
53339;SDS011;46212;50.258;19.062;2023-03-23T11:08:37;5.50;;;2.25;;
53339;SDS011;46212;50.258;19.062;2023-03-23T11:11:24;7.28;;;3.17;;
53339;SDS011;46212;50.258;19.062;2023-03-23T11:14:02;6.28;;;2.50;;
53339;SDS011;46212;50.258;19.062;2023-03-23T11:16:44;9.60;;;3.72;;
53339;SDS011;46212;50.258;19.062;2023-03-23T11:19:20;9.98;;;3.80;;
53339;SDS011;46212;50.258;19.062;2023-03-23T11:21:50;5.63;;;2.70;;
53339;SDS011;46212;50.258;19.062;2023-03-23T11:24:17;5.22;;;2.60;;
53339;SDS011;46212;50.258;19.062;2023-03-23T11:26:43;8.33;;;2.93;;
53339;SDS011;46212;50.258;19.062;2023-03-23T11:29:14;10.40;;;2.38;;
53339;SDS011;46212;50.258;19.062;2023-03-23T11:32:04;9.75;;;2.65;;
53339;SDS011;46212;50.258;19.062;2023-03-23T11:34:34;6.50;;;2.70;;
53339;SDS011;46212;50.258;19.062;2023-03-23T11:37:09;6.22;;;2.97;;
53339;SDS011;46212;50.258;19.062;2023-03-23T11:39:55;9.35;;;2.70;;
53339;SDS011;46212;50.258;19.062;2023-03-23T11:42:35;8.10;;;3.10;;
53339;SDS011;46212;50.258;19.062;2023-03-23T11:50:55;7.53;;;3.20;;
53339;SDS011;46212;50.258;19.062;2023-03-23T11:58:55;7.55;;;3.40;;
53339;SDS011;46212;50.258;19.062;2023-03-23T12:15:33;6.93;;;2.40;;
53339;SDS011;46212;50.258;19.062;2023-03-23T12:23:23;4.85;;;2.80;;
53339;SDS011;46212;50.258;19.062;2023-03-23T12:34:17;5.35;;;2.38;;
53339;SDS011;46212;50.258;19.062;2023-03-23T12:48:00;6.32;;;3.33;;
53339;SDS011;46212;50.258;19.062;2023-03-23T12:50:36;4.65;;;2.70;;
53339;SDS011;46212;50.258;19.062;2023-03-23T12:58:30;4.72;;;2.58;;
53339;SDS011;46212;50.258;19.062;2023-03-23T13:01:07;6.63;;;2.50;;
53339;SDS011;46212;50.258;19.062;2023-03-23T13:06:36;5.45;;;3.10;;
53339;SDS011;46212;50.258;19.062;2023-03-23T13:11:48;12.55;;;3.83;;
53339;SDS011;46212;50.258;19.062;2023-03-23T13:28:23;7.75;;;2.97;;
53339;SDS011;46212;50.258;19.062;2023-03-23T13:30:57;6.78;;;2.70;;
53339;SDS011;46212;50.258;19.062;2023-03-23T13:33:33;6.68;;;3.10;;
53339;SDS011;46212;50.258;19.062;2023-03-23T13:36:02;9.48;;;3.50;;
53339;SDS011;46212;50.258;19.062;2023-03-23T13:38:43;5.32;;;2.60;;
53339;SDS011;46212;50.258;19.062;2023-03-23T13:41:12;5.95;;;3.13;;
53339;SDS011;46212;50.258;19.062;2023-03-23T13:43:39;6.43;;;3.20;;
53339;SDS011;46212;50.258;19.062;2023-03-23T13:46:25;4.60;;;2.58;;
53339;SDS011;46212;50.258;19.062;2023-03-23T13:59:07;5.63;;;2.80;;
53339;SDS011;46212;50.258;19.062;2023-03-23T14:01:40;7.55;;;2.38;;
53339;SDS011;46212;50.258;19.062;2023-03-23T14:04:10;6.80;;;2.83;;
53339;SDS011;46212;50.258;19.062;2023-03-23T14:06:41;6.07;;;2.70;;
53339;SDS011;46212;50.258;19.062;2023-03-23T14:09:13;6.20;;;2.83;;
53339;SDS011;46212;50.258;19.062;2023-03-23T14:11:56;8.48;;;4.80;;
53339;SDS011;46212;50.258;19.062;2023-03-23T14:14:29;4.68;;;2.70;;
53339;SDS011;46212;50.258;19.062;2023-03-23T14:17:08;6.00;;;3.00;;
53339;SDS011;46212;50.258;19.062;2023-03-23T14:19:37;7.40;;;5.55;;
53339;SDS011;46212;50.258;19.062;2023-03-23T14:22:04;5.00;;;3.28;;
53339;SDS011;46212;50.258;19.062;2023-03-23T14:24:44;6.43;;;3.20;;
53339;SDS011;46212;50.258;19.062;2023-03-23T14:29:38;8.43;;;3.40;;
53339;SDS011;46212;50.258;19.062;2023-03-23T14:32:08;14.87;;;4.60;;
53339;SDS011;46212;50.258;19.062;2023-03-23T14:34:51;9.40;;;4.28;;
53339;SDS011;46212;50.258;19.062;2023-03-23T14:37:18;9.27;;;4.00;;
53339;SDS011;46212;50.258;19.062;2023-03-23T14:39:46;6.43;;;2.83;;
53339;SDS011;46212;50.258;19.062;2023-03-23T14:42:14;9.88;;;3.40;;
53339;SDS011;46212;50.258;19.062;2023-03-23T14:44:43;8.80;;;3.42;;
53339;SDS011;46212;50.258;19.062;2023-03-23T14:47:22;18.75;;;10.68;;
53339;SDS011;46212;50.258;19.062;2023-03-23T14:50:26;8.30;;;3.17;;
53339;SDS011;46212;50.258;19.062;2023-03-23T14:53:09;8.70;;;2.90;;
53339;SDS011;46212;50.258;19.062;2023-03-23T14:55:35;7.78;;;3.45;;
53339;SDS011;46212;50.258;19.062;2023-03-23T14:58:07;8.60;;;3.33;;
53339;SDS011;46212;50.258;19.062;2023-03-23T15:00:45;7.15;;;3.60;;
53339;SDS011;46212;50.258;19.062;2023-03-23T15:03:17;9.25;;;4.45;;
53339;SDS011;46212;50.258;19.062;2023-03-23T15:05:48;10.55;;;4.35;;
53339;SDS011;46212;50.258;19.062;2023-03-23T15:08:30;9.07;;;4.75;;
53339;SDS011;46212;50.258;19.062;2023-03-23T15:11:01;9.55;;;4.72;;
53339;SDS011;46212;50.258;19.062;2023-03-23T15:13:31;9.63;;;4.13;;
53339;SDS011;46212;50.258;19.062;2023-03-23T15:16:11;8.77;;;4.30;;
53339;SDS011;46212;50.258;19.062;2023-03-23T15:18:47;16.43;;;5.83;;
53339;SDS011;46212;50.258;19.062;2023-03-23T15:23:54;19.70;;;9.45;;
53339;SDS011;46212;50.258;19.062;2023-03-23T15:26:24;16.20;;;7.47;;
53339;SDS011;46212;50.258;19.062;2023-03-23T15:29:02;14.77;;;6.60;;
53339;SDS011;46212;50.258;19.062;2023-03-23T15:31:46;12.52;;;6.63;;
53339;SDS011;46212;50.258;19.062;2023-03-23T15:37:05;8.95;;;4.95;;
53339;SDS011;46212;50.258;19.062;2023-03-23T15:39:45;10.70;;;4.10;;
53339;SDS011;46212;50.258;19.062;2023-03-23T15:42:29;7.07;;;3.72;;
53339;SDS011;46212;50.258;19.062;2023-03-23T15:52:50;8.82;;;4.20;;
53339;SDS011;46212;50.258;19.062;2023-03-23T15:57:45;9.82;;;4.70;;
53339;SDS011;46212;50.258;19.062;2023-03-23T16:00:11;9.33;;;5.23;;
53339;SDS011;46212;50.258;19.062;2023-03-23T16:02:37;13.85;;;6.80;;
53339;SDS011;46212;50.258;19.062;2023-03-23T16:05:03;12.90;;;6.93;;
53339;SDS011;46212;50.258;19.062;2023-03-23T16:07:29;12.40;;;4.70;;
53339;SDS011;46212;50.258;19.062;2023-03-23T16:09:55;5.38;;;2.55;;
53339;SDS011;46212;50.258;19.062;2023-03-23T16:12:20;10.83;;;3.90;;
53339;SDS011;46212;50.258;19.062;2023-03-23T16:14:46;8.40;;;3.87;;
53339;SDS011;46212;50.258;19.062;2023-03-23T16:17:18;12.37;;;5.40;;
53339;SDS011;46212;50.258;19.062;2023-03-23T16:19:44;12.32;;;5.93;;
53339;SDS011;46212;50.258;19.062;2023-03-23T16:22:09;9.77;;;5.60;;
53339;SDS011;46212;50.258;19.062;2023-03-23T16:24:35;8.40;;;3.80;;
53339;SDS011;46212;50.258;19.062;2023-03-23T16:27:00;10.77;;;4.50;;
53339;SDS011;46212;50.258;19.062;2023-03-23T16:29:26;10.70;;;4.63;;
53339;SDS011;46212;50.258;19.062;2023-03-23T16:31:52;8.20;;;4.43;;
53339;SDS011;46212;50.258;19.062;2023-03-23T16:34:17;9.10;;;4.83;;
53339;SDS011;46212;50.258;19.062;2023-03-23T16:36:43;11.80;;;5.97;;
53339;SDS011;46212;50.258;19.062;2023-03-23T16:39:10;12.77;;;6.37;;
53339;SDS011;46212;50.258;19.062;2023-03-23T16:41:36;13.40;;;5.80;;
53339;SDS011;46212;50.258;19.062;2023-03-23T16:44:02;16.07;;;8.70;;
53339;SDS011;46212;50.258;19.062;2023-03-23T16:46:27;13.10;;;7.23;;
53339;SDS011;46212;50.258;19.062;2023-03-23T16:48:53;19.67;;;9.15;;
53339;SDS011;46212;50.258;19.062;2023-03-23T16:51:19;26.17;;;14.55;;
53339;SDS011;46212;50.258;19.062;2023-03-23T16:53:45;21.90;;;12.00;;
53339;SDS011;46212;50.258;19.062;2023-03-23T16:56:10;23.47;;;11.27;;
53339;SDS011;46212;50.258;19.062;2023-03-23T16:58:36;24.30;;;12.83;;
53339;SDS011;46212;50.258;19.062;2023-03-23T17:01:01;25.20;;;13.43;;
53339;SDS011;46212;50.258;19.062;2023-03-23T17:03:27;12.13;;;7.60;;
53339;SDS011;46212;50.258;19.062;2023-03-23T17:05:53;16.07;;;7.97;;
53339;SDS011;46212;50.258;19.062;2023-03-23T17:08:19;18.52;;;10.23;;
53339;SDS011;46212;50.258;19.062;2023-03-23T17:10:45;9.55;;;5.47;;
53339;SDS011;46212;50.258;19.062;2023-03-23T17:13:12;14.32;;;7.65;;
53339;SDS011;46212;50.258;19.062;2023-03-23T17:15:38;14.95;;;8.55;;
53339;SDS011;46212;50.258;19.062;2023-03-23T17:18:05;13.70;;;7.00;;
53339;SDS011;46212;50.258;19.062;2023-03-23T17:20:31;17.05;;;8.27;;
53339;SDS011;46212;50.258;19.062;2023-03-23T17:22:57;13.77;;;5.68;;